Time;durP1;ratioP1;P1;durP2;ratioP2;P2;SDS_P1;SDS_P2;PMS_P1;PMS_P2;Temp;Humidity;BMP_temperature;BMP_pressure;BME280_temperature;BME280_humidity;BME280_pressure;Samples;Min_cycle;Max_cycle;Signal;HPM_P1;HPM_P2
2023/09/12 00:03:47;;;;;;;;;;;;;;;21.64;61.90;99427.63;10407664;28;1953;-67
2023/09/12 00:08:43;;;;;;;;;;;;;;;21.65;61.93;99442.59;10408671;28;881;-67
2023/09/12 00:13:39;;;;;;;;;;;;;;;21.64;61.89;99440.91;10408405;28;850;-67
2023/09/12 00:18:35;;;;;;;;;;;;;;;21.64;62.15;99437.38;10407408;28;1152;-66
2023/09/12 00:23:31;;;;;;;;;;;;;;;21.64;62.15;99421.44;10407300;28;1885;-67
2023/09/12 00:28:27;;;;;;;;;;;;;;;21.63;62.04;99417.94;10407345;28;1305;-67
2023/09/12 00:33:23;;;;;;;;;;;;;;;21.63;61.91;99415.31;10407195;28;837;-66
2023/09/12 00:38:19;;;;;;;;;;;;;;;21.65;61.87;99407.25;10407054;28;865;-67
2023/09/12 00:43:14;;;;;;;;;;;;;;;21.64;61.92;99402.88;10406259;28;1909;-67
2023/09/12 00:48:10;;;;;;;;;;;;;;;21.63;61.95;99387.94;10406931;28;773;-67
2023/09/12 00:53:06;;;;;;;;;;;;;;;21.65;62.09;99388.69;10406828;28;858;-67
2023/09/12 00:58:02;;;;;;;;;;;;;;;21.64;62.11;99406.41;10406725;28;872;-66
2023/09/12 01:02:58;;;;;;;;;;;;;;;21.64;61.90;99414.38;10406567;28;1954;-67
2023/09/12 01:07:54;;;;;;;;;;;;;;;21.65;61.96;99415.22;10407486;28;865;-66
2023/09/12 01:12:50;;;;;;;;;;;;;;;21.65;61.93;99423.19;10413843;28;765;-67
2023/09/12 01:17:46;;;;;;;;;;;;;;;21.63;62.09;99436.53;10414306;28;837;-67
2023/09/12 01:22:41;;;;;;;;;;;;;;;21.62;61.95;99448.09;10413654;28;1956;-66
2023/09/12 01:27:37;;;;;;;;;;;;;;;21.64;62.10;99455.94;10412927;28;1219;-67
2023/09/12 01:32:33;;;;;;;;;;;;;;;21.64;62.11;99471.84;10413132;28;884;-67
2023/09/12 01:37:29;;;;;;;;;;;;;;;21.63;61.99;99475.47;10412929;28;875;-67
2023/09/12 01:42:25;;;;;;;;;;;;;;;21.63;62.15;99456.91;10412591;28;1909;-67
2023/09/12 01:47:22;;;;;;;;;;;;;;;21.63;62.03;99446.28;10413729;28;892;-67
2023/09/12 01:52:18;;;;;;;;;;;;;;;21.63;62.13;99427.72;10413367;28;925;-67
2023/09/12 01:57:14;;;;;;;;;;;;;;;21.63;62.11;99433.88;10411500;28;921;-67
2023/09/12 02:02:09;;;;;;;;;;;;;;;21.61;61.97;99427.84;10411319;28;1961;-67
2023/09/12 02:07:05;;;;;;;;;;;;;;;21.61;62.15;99409.28;10411695;28;1207;-66
2023/09/12 02:12:01;;;;;;;;;;;;;;;21.61;62.00;99387.19;10411671;28;968;-66
2023/09/12 02:16:57;;;;;;;;;;;;;;;21.62;62.13;99404.81;10393776;28;1620;-67
2023/09/12 02:21:53;;;;;;;;;;;;;;;21.62;62.05;99420.72;10410933;28;1897;-67
2023/09/12 02:26:49;;;;;;;;;;;;;;;21.61;62.12;99419.88;10411563;28;891;-67
2023/09/12 02:31:45;;;;;;;;;;;;;;;21.61;61.98;99403.09;10411732;28;1239;-66
2023/09/12 02:36:40;;;;;;;;;;;;;;;21.60;62.21;99425.28;10410480;28;1048;-67
2023/09/12 02:41:36;;;;;;;;;;;;;;;21.61;62.06;99454.34;10410297;28;1963;-67
2023/09/12 02:46:32;;;;;;;;;;;;;;;21.61;62.19;99453.47;10410308;28;980;-67
2023/09/12 02:51:28;;;;;;;;;;;;;;;21.63;62.12;99446.28;10409962;28;827;-67
2023/09/12 02:56:24;;;;;;;;;;;;;;;21.61;62.19;99453.47;10410995;28;995;-67
2023/09/12 03:01:21;;;;;;;;;;;;;;;21.60;62.00;99444.69;10409646;28;1894;-66
2023/09/12 03:06:20;;;;;;;;;;;;;;;21.59;62.17;99440.34;10410124;28;865;-67
2023/09/12 03:11:16;;;;;;;;;;;;;;;21.58;61.99;99420.06;10409231;28;841;-67
2023/09/12 03:16:11;;;;;;;;;;;;;;;21.59;62.34;99399.72;10408984;28;961;-67
2023/09/12 03:21:07;;;;;;;;;;;;;;;21.57;62.30;99394.50;10409243;28;1902;-67
2023/09/12 03:26:03;;;;;;;;;;;;;;;21.58;62.05;99393.53;10408750;28;780;-67
2023/09/12 03:30:59;;;;;;;;;;;;;;;21.58;62.22;99395.34;10407218;28;1430;-67
2023/09/12 03:35:55;;;;;;;;;;;;;;;21.59;62.07;99394.41;10409815;28;869;-67
2023/09/12 03:40:51;;;;;;;;;;;;;;;21.58;62.14;99403.28;10407581;28;1914;-66
2023/09/12 03:45:47;;;;;;;;;;;;;;;21.58;62.25;99428.00;10408826;28;916;-67
2023/09/12 03:50:43;;;;;;;;;;;;;;;21.58;62.16;99430.66;10408018;28;762;-66
2023/09/12 03:55:38;;;;;;;;;;;;;;;21.60;62.07;99441.19;10408580;28;785;-67
2023/09/12 04:00:34;;;;;;;;;;;;;;;21.61;62.14;99448.19;10407167;28;1890;-66
2023/09/12 04:05:30;;;;;;;;;;;;;;;21.58;62.21;99462.47;10407753;28;786;-67
2023/09/12 04:10:26;;;;;;;;;;;;;;;21.59;62.34;99445.66;10407864;28;921;-67
2023/09/12 04:15:22;;;;;;;;;;;;;;;21.59;62.29;99437.69;10407544;28;786;-67
2023/09/12 04:20:18;;;;;;;;;;;;;;;21.58;62.27;99425.34;10407484;28;1870;-67
2023/09/12 04:25:14;;;;;;;;;;;;;;;21.58;62.43;99403.28;10406365;28;1199;-67
2023/09/12 04:30:10;;;;;;;;;;;;;;;21.57;62.19;99402.44;10406367;28;1364;-67
2023/09/12 04:35:05;;;;;;;;;;;;;;;21.57;62.26;99396.31;10406507;28;1558;-67
2023/09/12 04:40:01;;;;;;;;;;;;;;;21.56;62.43;99398.09;10407588;28;1913;-67
2023/09/12 04:44:57;;;;;;;;;;;;;;;21.57;62.26;99386.53;10412331;28;769;-66
2023/09/12 04:49:53;;;;;;;;;;;;;;;21.58;62.46;99379.44;10414826;28;818;-67
2023/09/12 04:54:49;;;;;;;;;;;;;;;21.55;62.26;99376.97;10414673;28;860;-66
2023/09/12 04:59:45;;;;;;;;;;;;;;;21.55;62.28;99358.41;10414493;28;1897;-65
2023/09/12 05:04:41;;;;;;;;;;;;;;;21.54;62.41;99354.91;10413654;28;876;-66
2023/09/12 05:09:37;;;;;;;;;;;;;;;21.54;62.32;99360.22;10414064;28;805;-66
2023/09/12 05:14:32;;;;;;;;;;;;;;;21.54;62.33;99357.56;10414475;28;850;-66
2023/09/12 05:19:29;;;;;;;;;;;;;;;21.54;62.48;99344.31;10413638;28;1893;-66
2023/09/12 05:24:24;;;;;;;;;;;;;;;21.54;62.61;99339.00;10414390;28;877;-66
2023/09/12 05:29:20;;;;;;;;;;;;;;;21.53;62.54;99331.97;10413187;28;1092;-67
2023/09/12 05:34:16;;;;;;;;;;;;;;;21.54;62.65;99346.13;10413612;28;862;-66
2023/09/12 05:39:13;;;;;;;;;;;;;;;21.55;62.36;99329.25;10412952;28;917;-67
2023/09/12 05:44:12;;;;;;;;;;;;;;;21.52;62.40;99330.28;10413221;28;1905;-68
2023/09/12 05:49:08;;;;;;;;;;;;;;;21.55;62.42;99334.53;10412461;28;831;-66
2023/09/12 05:54:04;;;;;;;;;;;;;;;21.53;62.38;99334.63;10412059;28;869;-65
2023/09/12 05:59:00;;;;;;;;;;;;;;;21.53;62.64;99333.78;10412152;28;829;-66
2023/09/12 06:03:56;;;;;;;;;;;;;;;21.54;62.90;99331.06;10412017;28;1897;-66
2023/09/12 06:08:53;;;;;;;;;;;;;;;21.54;62.85;99340.81;10411684;28;821;-66
2023/09/12 06:13:49;;;;;;;;;;;;;;;21.54;62.56;99340.81;10412296;28;774;-66
2023/09/12 06:18:45;;;;;;;;;;;;;;;21.54;62.63;99349.63;10411336;28;754;-67
2023/09/12 06:23:41;;;;;;;;;;;;;;;21.54;62.62;99357.56;10412205;28;1897;-67
2023/09/12 06:28:36;;;;;;;;;;;;;;;21.53;62.75;99350.53;10411183;28;1565;-66
2023/09/12 06:33:32;;;;;;;;;;;;;;;21.53;62.68;99357.66;10410850;28;960;-66
2023/09/12 06:38:28;;;;;;;;;;;;;;;21.54;62.83;99372.63;10411144;28;960;-67
2023/09/12 06:43:25;;;;;;;;;;;;;;;21.53;62.80;99389.47;10410301;28;1963;-67
2023/09/12 06:48:21;;;;;;;;;;;;;;;21.53;62.67;99414.19;10410145;28;863;-67
2023/09/12 06:53:16;;;;;;;;;;;;;;;21.51;62.86;99429.38;10410514;28;827;-66
2023/09/12 06:58:12;;;;;;;;;;;;;;;21.54;62.64;99401.81;10407517;27;1097;-67
2023/09/12 07:03:08;;;;;;;;;;;;;;;21.54;62.85;99397.34;10409424;28;1890;-66
2023/09/12 07:08:04;;;;;;;;;;;;;;;21.54;62.85;99434.47;10408764;28;878;-67
2023/09/12 07:13:02;;;;;;;;;;;;;;;21.54;62.83;99438.94;10409156;28;863;-67
2023/09/12 07:17:59;;;;;;;;;;;;;;;21.53;62.94;99437.22;10408023;28;1698;-67
2023/09/12 07:22:55;;;;;;;;;;;;;;;21.52;62.73;99435.53;10408670;28;1955;-67
2023/09/12 07:27:53;;;;;;;;;;;;;;;21.51;62.96;99493.03;10408576;28;1230;-67
2023/09/12 07:32:50;;;;;;;;;;;;;;;21.50;62.81;99511.66;10408745;28;790;-67
2023/09/12 07:37:45;;;;;;;;;;;;;;;21.50;62.92;99479.84;10408006;28;790;-67
2023/09/12 07:42:41;;;;;;;;;;;;;;;21.48;62.91;99466.66;10408146;28;1962;-67
2023/09/12 07:47:37;;;;;;;;;;;;;;;21.50;62.96;99467.44;10424988;27;829;-66
2023/09/12 07:52:34;;;;;;;;;;;;;;;21.48;62.68;99471.13;10450779;27;837;-66
2023/09/12 07:57:30;;;;;;;;;;;;;;;21.48;62.91;99466.66;10449892;27;866;-67
2023/09/12 08:02:26;;;;;;;;;;;;;;;21.50;62.93;99437.41;10449513;28;1953;-67
2023/09/12 08:07:21;;;;;;;;;;;;;;;21.52;62.97;99439.03;10450138;28;824;-67
2023/09/12 08:12:17;;;;;;;;;;;;;;;21.52;62.99;99457.59;10450047;28;979;-66
2023/09/12 08:17:13;;;;;;;;;;;;;;;21.54;63.02;99461.00;10450913;27;771;-67
2023/09/12 08:22:09;;;;;;;;;;;;;;;21.50;62.87;99480.69;10458314;27;1942;-67
2023/09/12 08:27:05;;;;;;;;;;;;;;;21.50;63.04;99483.34;10457614;27;935;-67
2023/09/12 08:32:01;;;;;;;;;;;;;;;21.50;62.95;99474.53;10456685;27;1225;-67
2023/09/12 08:36:57;;;;;;;;;;;;;;;21.48;63.01;99477.28;10457246;27;859;-67
2023/09/12 08:41:53;;;;;;;;;;;;;;;21.47;63.20;99475.59;10456905;27;1909;-66
2023/09/12 08:46:49;;;;;;;;;;;;;;;21.50;63.14;99463.94;10456608;27;871;-66
2023/09/12 08:51:45;;;;;;;;;;;;;;;21.51;63.04;99455.00;10457238;27;781;-67
2023/09/12 08:56:42;;;;;;;;;;;;;;;21.51;63.12;99466.50;10457039;27;902;-66
2023/09/12 09:01:38;;;;;;;;;;;;;;;21.53;62.93;99477.00;10457350;27;1898;-66
2023/09/12 09:06:37;;;;;;;;;;;;;;;21.51;63.02;99477.09;10455970;27;969;-66
2023/09/12 09:11:34;;;;;;;;;;;;;;;21.48;63.18;99485.22;10455826;27;926;-67
2023/09/12 09:16:30;;;;;;;;;;;;;;;21.47;63.28;99485.34;10455590;27;913;-66
2023/09/12 09:21:26;;;;;;;;;;;;;;;21.48;63.15;99487.03;10455816;27;1894;-67
2023/09/12 09:26:22;;;;;;;;;;;;;;;21.51;63.15;99489.50;10455292;27;862;-67
2023/09/12 09:31:18;;;;;;;;;;;;;;;21.51;63.05;99474.44;10454542;27;1243;-67
2023/09/12 09:36:14;;;;;;;;;;;;;;;21.51;63.00;99469.16;10454826;27;968;-67
2023/09/12 09:41:10;;;;;;;;;;;;;;;21.53;62.97;99467.22;10454663;27;1967;-67
2023/09/12 09:46:06;;;;;;;;;;;;;;;21.56;62.84;99456.44;10454483;27;857;-66
2023/09/12 09:51:02;;;;;;;;;;;;;;;21.54;63.23;99447.72;10454392;27;772;-67
2023/09/12 09:55:58;;;;;;;;;;;;;;;21.52;63.33;99446.97;10454124;27;953;-66
2023/09/12 10:00:54;;;;;;;;;;;;;;;21.56;63.21;99452.94;10453907;27;1893;-67
2023/09/12 10:05:50;;;;;;;;;;;;;;;21.56;63.22;99455.56;10453773;27;857;-67
2023/09/12 10:10:46;;;;;;;;;;;;;;;21.58;63.23;99457.19;10454186;27;805;-67
2023/09/12 10:15:41;;;;;;;;;;;;;;;21.63;63.21;99462.19;10454204;27;852;-67
2023/09/12 10:20:37;;;;;;;;;;;;;;;21.60;63.27;99473.84;10453082;27;1959;-67
2023/09/12 10:25:33;;;;;;;;;;;;;;;21.58;63.13;99486.34;10453626;27;766;-66
2023/09/12 10:30:29;;;;;;;;;;;;;;;21.55;63.44;99486.56;10453478;27;1346;-67
2023/09/12 10:35:25;;;;;;;;;;;;;;;21.54;63.27;99484.88;10453228;27;825;-66
2023/09/12 10:40:21;;;;;;;;;;;;;;;21.57;63.51;99486.47;10451347;27;1901;-66
2023/09/12 10:45:17;;;;;;;;;;;;;;;21.61;63.18;99486.19;10452126;27;858;-66
2023/09/12 10:50:13;;;;;;;;;;;;;;;21.63;63.03;99476.31;10451893;27;885;-68
2023/09/12 10:55:09;;;;;;;;;;;;;;;21.65;63.24;99462.97;10451762;27;929;-66
2023/09/12 11:00:08;;;;;;;;;;;;;;;21.67;63.17;99471.69;10451521;27;1956;-67
2023/09/12 11:05:04;;;;;;;;;;;;;;;21.67;63.28;99467.22;10451262;27;898;-67
2023/09/12 11:10:00;;;;;;;;;;;;;;;21.65;63.17;99469.13;10451157;27;906;-67
2023/09/12 11:14:56;;;;;;;;;;;;;;;21.66;63.37;99470.81;10451519;27;880;-67
2023/09/12 11:19:52;;;;;;;;;;;;;;;21.70;63.46;99465.31;10450793;27;1960;-67
2023/09/12 11:24:48;;;;;;;;;;;;;;;21.70;63.39;99466.16;10451241;27;849;-67
2023/09/12 11:29:44;;;;;;;;;;;;;;;21.74;63.30;99456.19;10449956;27;1234;-67
2023/09/12 11:34:40;;;;;;;;;;;;;;;21.72;63.25;99451.03;10451043;27;793;-67
2023/09/12 11:39:36;;;;;;;;;;;;;;;21.74;63.29;99454.41;10450901;27;858;-66
2023/09/12 11:44:32;;;;;;;;;;;;;;;21.75;63.26;99457.94;10450183;27;1969;-67
2023/09/12 11:49:28;;;;;;;;;;;;;;;21.64;63.28;99462.13;10449913;27;837;-67
2023/09/12 11:54:24;;;;;;;;;;;;;;;21.59;63.63;99469.50;10448473;27;960;-67
2023/09/12 11:59:21;;;;;;;;;;;;;;;21.58;64.01;99464.28;10449750;27;809;-66
2023/09/12 12:04:17;;;;;;;;;;;;;;;21.55;64.14;99452.06;10450098;28;1964;-67
2023/09/12 12:09:14;;;;;;;;;;;;;;;21.55;64.08;99441.47;10450277;28;822;-67
2023/09/12 12:14:10;;;;;;;;;;;;;;;21.55;64.10;99435.31;10419819;28;1087;-67
2023/09/12 12:19:06;;;;;;;;;;;;;;;21.54;64.04;99444.25;10407513;28;786;-67
2023/09/12 12:24:02;;;;;;;;;;;;;;;21.53;63.96;99442.50;10406339;28;1958;-67
2023/09/12 12:28:58;;;;;;;;;;;;;;;21.52;64.12;99440.81;10394666;28;1091;-67
2023/09/12 12:33:54;;;;;;;;;;;;;;;21.52;63.89;99436.38;10366874;28;872;-67
2023/09/12 12:38:50;;;;;;;;;;;;;;;21.51;63.86;99429.38;10365592;28;886;-67
2023/09/12 12:43:46;;;;;;;;;;;;;;;21.51;63.94;99433.81;10365141;28;1984;-67
2023/09/12 12:48:43;;;;;;;;;;;;;;;21.52;64.02;99441.66;10365614;28;863;-67
2023/09/12 12:53:39;;;;;;;;;;;;;;;21.51;63.80;99434.69;10364242;28;1247;-67
2023/09/12 12:58:35;;;;;;;;;;;;;;;21.51;63.75;99421.41;10365348;28;782;-66
2023/09/12 13:03:31;;;;;;;;;;;;;;;21.52;63.72;99424.91;10366036;28;1905;-66
2023/09/12 13:08:27;;;;;;;;;;;;;;;21.52;63.65;99419.63;10372443;28;857;-67
2023/09/12 13:13:23;;;;;;;;;;;;;;;21.51;63.60;99410.81;10371865;28;836;-67
2023/09/12 13:18:19;;;;;;;;;;;;;;;21.52;64.06;99412.50;10371861;28;961;-67
2023/09/12 13:23:15;;;;;;;;;;;;;;;21.51;63.93;99397.56;10371408;28;1897;-67
2023/09/12 13:28:11;;;;;;;;;;;;;;;21.51;63.95;99392.25;10371780;28;1280;-67
2023/09/12 13:33:07;;;;;;;;;;;;;;;21.51;64.04;99405.50;10371138;28;777;-68
2023/09/12 13:38:09;;;;;;;;;;;;;;;21.52;63.94;99391.28;10371234;28;782;-67
2023/09/12 13:43:04;;;;;;;;;;;;;;;21.53;63.96;99385.00;10371453;28;1910;-67
2023/09/12 13:48:00;;;;;;;;;;;;;;;21.54;64.04;99383.25;10370782;28;779;-67
2023/09/12 13:52:56;;;;;;;;;;;;;;;21.53;63.94;99374.41;10370024;28;1410;-67
2023/09/12 13:57:52;;;;;;;;;;;;;;;21.54;63.65;99377.94;10370353;28;770;-67
2023/09/12 14:02:48;;;;;;;;;;;;;;;21.56;63.72;99368.06;10370582;28;1894;-67
2023/09/12 14:07:44;;;;;;;;;;;;;;;21.55;63.58;99361.06;10369356;28;885;-67
2023/09/12 14:12:40;;;;;;;;;;;;;;;21.57;63.58;99361.81;10369511;28;1231;-67
2023/09/12 14:17:36;;;;;;;;;;;;;;;21.58;63.83;99360.84;10368835;28;809;-67
2023/09/12 14:22:31;;;;;;;;;;;;;;;21.57;63.64;99351.22;10369286;28;1959;-66
2023/09/12 14:27:27;;;;;;;;;;;;;;;21.58;63.59;99347.59;10368805;28;1260;-67
2023/09/12 14:32:23;;;;;;;;;;;;;;;21.56;63.75;99342.41;10410286;28;789;-66
2023/09/12 14:37:19;;;;;;;;;;;;;;;21.58;63.70;99342.28;10410808;28;806;-67
2023/09/12 14:42:15;;;;;;;;;;;;;;;21.58;64.08;99348.44;10409993;28;1973;-67
2023/09/12 14:47:11;;;;;;;;;;;;;;;21.58;63.69;99351.09;10409759;28;767;-67
2023/09/12 14:52:07;;;;;;;;;;;;;;;21.60;63.67;99351.00;10409464;28;888;-67
2023/09/12 14:57:03;;;;;;;;;;;;;;;21.60;63.50;99341.25;10409402;28;1041;-67
2023/09/12 15:01:59;;;;;;;;;;;;;;;21.62;63.50;99344.66;10410097;28;1955;-67
2023/09/12 15:06:55;;;;;;;;;;;;;;;21.64;63.44;99336.56;10409718;28;921;-67
2023/09/12 15:11:50;;;;;;;;;;;;;;;21.64;63.61;99345.41;10409819;28;871;-69
2023/09/12 15:16:46;;;;;;;;;;;;;;;21.62;63.46;99326.09;10407793;27;1183;-67
2023/09/12 15:21:42;;;;;;;;;;;;;;;21.61;63.27;99321.75;10408308;28;1956;-67
2023/09/12 15:26:38;;;;;;;;;;;;;;;21.62;63.38;99327.91;10408375;28;813;-67
2023/09/12 15:31:34;;;;;;;;;;;;;;;21.62;63.51;99320.78;10407782;28;1449;-67
2023/09/12 15:36:30;;;;;;;;;;;;;;;21.63;63.67;99311.00;10418133;27;1133;-67
2023/09/12 15:41:26;;;;;;;;;;;;;;;21.62;63.53;99304.88;10449983;27;1973;-67
2023/09/12 15:46:23;;;;;;;;;;;;;;;21.62;63.80;99302.22;10449734;27;873;-68
2023/09/12 15:51:19;;;;;;;;;;;;;;;21.61;64.14;99303.19;10449487;27;980;-67
2023/09/12 15:56:14;;;;;;;;;;;;;;;21.62;64.17;99306.69;10449423;27;770;-67
2023/09/12 16:01:10;;;;;;;;;;;;;;;21.62;64.13;99306.69;10421075;28;1960;-67
2023/09/12 16:06:06;;;;;;;;;;;;;;;21.61;63.93;99305.84;10408550;28;856;-67
2023/09/12 16:11:02;;;;;;;;;;;;;;;21.62;64.05;99311.97;10407050;28;912;-67
2023/09/12 16:15:58;;;;;;;;;;;;;;;21.64;63.91;99310.06;10407367;28;762;-67
2023/09/12 16:20:54;;;;;;;;;;;;;;;21.64;63.89;99318.88;10407660;28;1895;-67
2023/09/12 16:25:52;;;;;;;;;;;;;;;21.65;63.76;99303.81;10407551;28;781;-67
2023/09/12 16:30:48;;;;;;;;;;;;;;;21.64;63.87;99296.78;10406382;28;1321;-67
2023/09/12 16:35:43;;;;;;;;;;;;;;;21.65;63.90;99306.47;10407881;28;873;-67
2023/09/12 16:40:39;;;;;;;;;;;;;;;21.65;63.97;99323.22;10411830;28;1913;-67
2023/09/12 16:45:36;;;;;;;;;;;;;;;21.65;63.82;99323.22;10415039;28;953;-67
2023/09/12 16:50:32;;;;;;;;;;;;;;;21.65;63.86;99330.34;10414647;28;964;-67
2023/09/12 16:55:28;;;;;;;;;;;;;;;21.63;64.04;99325.13;10414763;28;929;-67
2023/09/12 17:00:24;;;;;;;;;;;;;;;21.65;64.09;99335.66;10414293;28;1886;-67
2023/09/12 17:05:22;;;;;;;;;;;;;;;21.64;63.78;99336.56;10413773;28;861;-67
2023/09/12 17:10:20;;;;;;;;;;;;;;;21.65;64.18;99325.03;10414597;28;865;-67
2023/09/12 17:15:18;;;;;;;;;;;;;;;21.66;63.85;99337.34;10414778;28;846;-67
2023/09/12 17:20:14;;;;;;;;;;;;;;;21.64;64.05;99334.81;10413557;28;1894;-67
2023/09/12 17:25:12;;;;;;;;;;;;;;;21.64;64.05;99340.09;10414568;28;919;-66
2023/09/12 17:30:11;;;;;;;;;;;;;;;21.64;64.12;99339.22;10413609;28;1198;-67
2023/09/12 17:35:07;;;;;;;;;;;;;;;21.65;64.04;99335.66;10413912;28;830;-66
2023/09/12 17:40:03;;;;;;;;;;;;;;;21.65;64.10;99320.56;10412711;28;1913;-67
2023/09/12 17:44:59;;;;;;;;;;;;;;;21.64;64.18;99329.50;10412634;28;1003;-66
2023/09/12 17:49:56;;;;;;;;;;;;;;;21.65;63.97;99333.00;10411497;28;743;-66
2023/09/12 17:54:52;;;;;;;;;;;;;;;21.65;64.04;99325.88;10412338;28;841;-67
2023/09/12 17:59:48;;;;;;;;;;;;;;;21.66;64.16;99334.69;10411643;28;1211;-67
2023/09/12 18:04:44;;;;;;;;;;;;;;;21.65;63.84;99339.13;10411768;28;1902;-67
2023/09/12 18:09:40;;;;;;;;;;;;;;;21.66;64.25;99342.63;10412504;28;845;-67
2023/09/12 18:14:36;;;;;;;;;;;;;;;21.66;63.88;99346.13;10411437;28;838;-67
2023/09/12 18:19:31;;;;;;;;;;;;;;;21.66;63.98;99348.78;10411599;28;831;-67
2023/09/12 18:24:27;;;;;;;;;;;;;;;21.66;63.98;99348.78;10410634;28;1955;-67
2023/09/12 18:29:23;;;;;;;;;;;;;;;21.67;63.94;99361.13;10411804;28;1528;-67
2023/09/12 18:34:19;;;;;;;;;;;;;;;21.67;63.99;99353.16;10411089;28;1256;-67
2023/09/12 18:39:15;;;;;;;;;;;;;;;21.66;64.12;99348.78;10410695;28;817;-67
2023/09/12 18:44:11;;;;;;;;;;;;;;;21.67;64.09;99353.16;10411015;28;1906;-68
2023/09/12 18:49:07;;;;;;;;;;;;;;;21.68;64.02;99356.66;10410294;28;908;-67
2023/09/12 18:54:03;;;;;;;;;;;;;;;21.69;64.12;99362.81;10410092;28;993;-67
2023/09/12 18:58:59;;;;;;;;;;;;;;;21.68;63.99;99372.56;10410615;28;825;-67
2023/09/12 19:03:55;;;;;;;;;;;;;;;21.67;64.00;99378.84;10408914;28;2006;-66
2023/09/12 19:08:51;;;;;;;;;;;;;;;21.67;63.99;99366.41;10409517;28;932;-67
2023/09/12 19:13:47;;;;;;;;;;;;;;;21.67;63.90;99355.81;10409272;28;950;-66
2023/09/12 19:18:42;;;;;;;;;;;;;;;21.69;64.09;99345.09;10410415;28;781;-67
2023/09/12 19:23:38;;;;;;;;;;;;;;;21.69;63.89;99330.97;10408974;28;1960;-67
2023/09/12 19:28:34;;;;;;;;;;;;;;;21.69;64.01;99318.56;10409186;28;1314;-67
2023/09/12 19:33:30;;;;;;;;;;;;;;;21.68;63.86;99308.91;10408635;28;822;-67
2023/09/12 19:38:26;;;;;;;;;;;;;;;21.68;64.13;99303.59;10408536;28;905;-66
2023/09/12 19:43:23;;;;;;;;;;;;;;;21.69;64.00;99300.00;10408890;28;1902;-66
2023/09/12 19:48:19;;;;;;;;;;;;;;;21.69;63.89;99296.50;10408281;28;840;-67
2023/09/12 19:53:17;;;;;;;;;;;;;;;21.69;63.95;99305.28;10408748;28;955;-67
2023/09/12 19:58:13;;;;;;;;;;;;;;;21.70;64.07;99344.16;10408743;28;898;-67
2023/09/12 20:03:10;;;;;;;;;;;;;;;21.71;63.93;99371.53;10408462;28;1957;-67
2023/09/12 20:08:06;;;;;;;;;;;;;;;21.72;64.19;99383.81;10407734;28;989;-67
2023/09/12 20:13:01;;;;;;;;;;;;;;;21.71;64.27;99375.03;10408526;28;1544;-67
2023/09/12 20:17:57;;;;;;;;;;;;;;;21.71;64.15;99380.31;10417265;28;952;-68
2023/09/12 20:22:53;;;;;;;;;;;;;;;21.71;64.21;99376.81;10416074;28;1974;-68
2023/09/12 20:27:49;;;;;;;;;;;;;;;21.70;64.26;99381.28;10415113;28;1506;-68
2023/09/12 20:32:45;;;;;;;;;;;;;;;21.69;64.19;99366.31;10414561;28;1128;-68
2023/09/12 20:37:41;;;;;;;;;;;;;;;21.70;64.08;99360.06;10415191;28;818;-68
2023/09/12 20:42:37;;;;;;;;;;;;;;;21.70;64.22;99351.25;10415881;28;1970;-68
2023/09/12 20:47:33;;;;;;;;;;;;;;;21.70;64.23;99359.22;10415132;28;848;-68
2023/09/12 20:52:28;;;;;;;;;;;;;;;21.69;64.09;99347.72;10415055;28;887;-68
2023/09/12 20:57:24;;;;;;;;;;;;;;;21.69;64.23;99353.03;10414875;28;873;-68
2023/09/12 21:02:20;;;;;;;;;;;;;;;21.69;64.08;99349.53;10415330;28;1955;-68
2023/09/12 21:07:16;;;;;;;;;;;;;;;21.70;64.04;99360.06;10414609;28;775;-68
2023/09/12 21:12:12;;;;;;;;;;;;;;;21.69;64.22;99347.72;10414262;28;868;-68
2023/09/12 21:17:08;;;;;;;;;;;;;;;21.68;64.00;99324.81;10414662;28;794;-68
2023/09/12 21:22:04;;;;;;;;;;;;;;;21.68;64.07;99298.31;10414392;28;1897;-68
2023/09/12 21:27:00;;;;;;;;;;;;;;;21.69;63.99;99291.19;10413009;28;1070;-68
2023/09/12 21:31:58;;;;;;;;;;;;;;;21.68;64.21;99295.66;10413538;28;1175;-68
2023/09/12 21:36:55;;;;;;;;;;;;;;;21.69;64.14;99304.44;10413117;28;1171;-68
2023/09/12 21:41:51;;;;;;;;;;;;;;;21.69;64.17;99301.78;10413021;28;1913;-68
2023/09/12 21:46:47;;;;;;;;;;;;;;;21.68;64.13;99306.25;10413026;28;893;-68
2023/09/12 21:51:43;;;;;;;;;;;;;;;21.68;63.95;99314.22;10413195;28;859;-68
2023/09/12 21:56:38;;;;;;;;;;;;;;;21.68;63.94;99311.56;10411989;28;963;-68
2023/09/12 22:01:34;;;;;;;;;;;;;;;21.68;64.13;99319.53;10412608;28;1957;-68
2023/09/12 22:06:30;;;;;;;;;;;;;;;21.68;64.00;99324.81;10411920;28;995;-68
2023/09/12 22:11:26;;;;;;;;;;;;;;;21.68;63.87;99330.13;10411880;28;754;-68
2023/09/12 22:16:22;;;;;;;;;;;;;;;21.67;64.01;99333.75;10411656;28;938;-68
2023/09/12 22:21:18;;;;;;;;;;;;;;;21.67;64.01;99334.59;10411427;28;1894;-68
2023/09/12 22:26:14;;;;;;;;;;;;;;;21.67;64.00;99341.72;10411881;28;840;-68
2023/09/12 22:31:11;;;;;;;;;;;;;;;21.67;63.98;99336.41;10412168;28;1174;-68
2023/09/12 22:36:06;;;;;;;;;;;;;;;21.67;64.15;99329.28;10410217;28;967;-68
2023/09/12 22:41:08;;;;;;;;;;;;;;;21.66;63.85;99327.56;10410753;28;1910;-68
2023/09/12 22:46:04;;;;;;;;;;;;;;;21.66;64.11;99330.22;10409896;28;936;-68
2023/09/12 22:51:00;;;;;;;;;;;;;;;21.66;63.97;99338.19;10410434;28;753;-68
2023/09/12 22:55:56;;;;;;;;;;;;;;;21.66;64.00;99340.84;10410710;28;860;-68
2023/09/12 23:00:52;;;;;;;;;;;;;;;21.65;63.95;99328.53;10410381;28;1958;-68
2023/09/12 23:05:48;;;;;;;;;;;;;;;21.66;63.82;99324.91;10409720;28;923;-68
2023/09/12 23:10:44;;;;;;;;;;;;;;;21.66;64.04;99322.25;10409496;28;902;-68
2023/09/12 23:15:41;;;;;;;;;;;;;;;21.65;63.96;99320.56;10409582;28;774;-68
2023/09/12 23:20:36;;;;;;;;;;;;;;;21.64;63.89;99302.97;10409920;28;1901;-68
2023/09/12 23:25:34;;;;;;;;;;;;;;;21.65;63.91;99290.56;10409006;28;790;-68
2023/09/12 23:30:30;;;;;;;;;;;;;;;21.64;63.96;99295.00;10409122;28;1285;-68
2023/09/12 23:35:26;;;;;;;;;;;;;;;21.64;63.86;99302.97;10408621;28;1415;-68
2023/09/12 23:40:22;;;;;;;;;;;;;;;21.65;64.09;99330.34;10408457;28;1917;-68
2023/09/12 23:45:18;;;;;;;;;;;;;;;21.65;63.83;99336.50;10409053;28;916;-68
2023/09/12 23:50:14;;;;;;;;;;;;;;;21.65;64.06;99314.44;10407928;28;775;-68
2023/09/12 23:55:10;;;;;;;;;;;;;;;21.65;63.85;99317.06;10407880;28;901;-68
